Time;durP1;ratioP1;P1;durP2;ratioP2;P2;SDS_P1;SDS_P2;PMS_P1;PMS_P2;Temp;Humidity;BMP_temperature;BMP_pressure;BME280_temperature;BME280_humidity;BME280_pressure;Samples;Min_cycle;Max_cycle;Signal;HPM_P1;HPM_P2
2022/10/17 00:01:34;;;;;;;30.60;19.67;;;;;;;0.10;100.00;100941.06;1661104;84;20991;-73
2022/10/17 00:04:01;;;;;;;23.85;15.13;;;;;;;0.10;100.00;100929.95;1660957;84;21174;-73
2022/10/17 00:06:28;;;;;;;24.65;14.85;;;;;;;0.11;100.00;100935.53;1660317;86;21006;-73
2022/10/17 00:08:55;;;;;;;24.80;15.00;;;;;;;0.13;100.00;100936.44;1656042;86;21030;-73
2022/10/17 00:11:23;;;;;;;22.22;13.70;;;;;;;0.14;100.00;100927.93;1655979;86;20979;-73
2022/10/17 00:13:51;;;;;;;21.05;14.90;;;;;;;0.13;100.00;100932.59;1656078;86;21042;-73
2022/10/17 00:16:28;;;;;;;24.35;14.95;;;;;;;0.11;100.00;100927.85;1637263;86;21031;-72
2022/10/17 00:18:56;;;;;;;26.52;15.32;;;;;;;0.04;100.00;100927.24;1655983;86;21074;-72
2022/10/17 00:21:23;;;;;;;18.12;13.43;;;;;;;-0.05;100.00;100934.30;1656051;86;21018;-73
2022/10/17 00:23:50;;;;;;;19.40;14.10;;;;;;;-0.11;100.00;100929.89;1656166;86;21027;-72
2022/10/17 00:26:19;;;;;;;21.10;14.55;;;;;;;-0.15;100.00;100925.92;1656288;86;21054;-73
2022/10/17 00:28:48;;;;;;;26.17;15.60;;;;;;;-0.19;100.00;100921.14;1656154;86;21179;-72
2022/10/17 00:31:18;;;;;;;26.42;13.88;;;;;;;-0.22;100.00;100912.56;1656159;86;21049;-72
2022/10/17 00:33:44;;;;;;;22.77;14.05;;;;;;;-0.23;100.00;100918.50;1656195;86;21030;-73
2022/10/17 00:36:21;;;;;;;21.10;13.68;;;;;;;-0.25;100.00;100920.15;1656201;86;21490;-73
2022/10/17 00:38:56;;;;;;;21.75;14.58;;;;;;;-0.29;100.00;100924.31;1656216;86;21530;-72
2022/10/17 00:41:28;;;;;;;21.52;14.50;;;;;;;-0.32;100.00;100928.48;1656189;86;21174;-72
2022/10/17 00:44:03;;;;;;;22.05;13.28;;;;;;;-0.37;100.00;100939.45;1656160;86;20967;-72
2022/10/17 00:46:37;;;;;;;21.60;12.88;;;;;;;-0.41;100.00;100949.58;1656216;86;21027;-72
2022/10/17 00:49:08;;;;;;;18.73;12.45;;;;;;;-0.45;100.00;100955.02;1656217;86;20978;-72
2022/10/17 00:51:48;;;;;;;20.37;13.45;;;;;;;-0.48;100.00;100952.37;1656431;86;21022;-72
2022/10/17 00:54:18;;;;;;;20.30;13.60;;;;;;;-0.49;100.00;100962.55;1653533;86;21126;-72
2022/10/17 00:56:45;;;;;;;19.45;11.65;;;;;;;-0.50;100.00;100953.15;1656129;86;21012;-72
2022/10/17 00:59:12;;;;;;;16.07;11.05;;;;;;;-0.52;100.00;100956.07;1656920;86;21034;-72
2022/10/17 01:01:43;;;;;;;17.42;10.03;;;;;;;-0.51;100.00;100954.84;1658677;86;21078;-72
2022/10/17 01:04:10;;;;;;;20.92;12.65;;;;;;;-0.49;100.00;100948.49;1657743;86;21529;-72
2022/10/17 01:06:38;;;;;;;15.40;12.43;;;;;;;-0.45;100.00;100954.14;1656351;86;21162;-72
2022/10/17 01:09:04;;;;;;;21.55;12.18;;;;;;;-0.43;100.00;100946.98;1656119;86;21015;-72
2022/10/17 01:11:44;;;;;;;18.52;12.07;;;;;;;-0.43;100.00;100949.53;1656337;86;21018;-72
2022/10/17 01:14:31;;;;;;;18.90;11.00;;;;;;;-0.43;100.00;100946.11;1656184;86;21027;-72
2022/10/17 01:17:03;;;;;;;21.35;11.45;;;;;;;-0.45;100.00;100952.86;1654746;86;21049;-73
2022/10/17 01:19:58;;;;;;;21.57;12.30;;;;;;;-0.44;100.00;100953.32;1654191;86;20971;-73
2022/10/17 01:22:42;;;;;;;19.40;12.33;;;;;;;-0.45;100.00;100960.13;1618839;86;21023;-73
2022/10/17 01:25:29;;;;;;;21.33;10.75;;;;;;;-0.44;100.00;100959.71;1656887;86;21062;-72
2022/10/17 01:28:07;;;;;;;17.65;11.33;;;;;;;-0.45;100.00;100965.23;1656306;86;20987;-73
2022/10/17 01:31:08;;;;;;;14.95;11.65;;;;;;;-0.45;100.00;100961.81;1656206;86;20987;-72
2022/10/17 01:34:05;;;;;;;18.60;12.03;;;;;;;-0.44;100.00;100964.41;1656176;86;21296;-73
2022/10/17 01:36:53;;;;;;;17.17;12.07;;;;;;;-0.47;100.00;100965.61;1656144;86;20958;-73
2022/10/17 01:39:46;;;;;;;16.82;12.80;;;;;;;-0.51;100.00;100969.30;1656132;86;21070;-72
2022/10/17 01:42:27;;;;;;;15.32;11.75;;;;;;;-0.58;100.00;100972.09;1657227;86;21443;-72
2022/10/17 01:44:59;;;;;;;20.82;10.55;;;;;;;-0.64;100.00;100965.56;1654660;86;20986;-72
2022/10/17 01:47:29;;;;;;;17.35;11.22;;;;;;;-0.64;100.00;100964.70;1651142;86;21164;-72
2022/10/17 01:50:02;;;;;;;15.08;11.35;;;;;;;-0.62;100.00;100963.92;1658390;86;21546;-72
2022/10/17 01:52:40;;;;;;;15.65;12.70;;;;;;;-0.60;100.00;100959.69;1656684;86;21078;-72
2022/10/17 01:55:16;;;;;;;13.68;11.08;;;;;;;-0.59;100.00;100964.39;1654566;86;21533;-72
2022/10/17 01:57:50;;;;;;;19.30;11.48;;;;;;;-0.60;100.00;100966.52;1654348;86;20994;-72
2022/10/17 02:00:21;;;;;;;19.98;11.80;;;;;;;-0.64;100.00;100963.42;1655773;86;21181;-72
2022/10/17 02:02:58;;;;;;;20.57;13.10;;;;;;;-0.70;100.00;100966.66;1656012;86;21014;-72
2022/10/17 02:05:29;;;;;;;17.95;13.13;;;;;;;-0.78;100.00;100968.99;1656155;86;20994;-72
2022/10/17 02:07:55;;;;;;;18.27;12.95;;;;;;;-0.83;100.00;100964.19;1656051;86;21026;-71
2022/10/17 02:10:36;;;;;;;27.98;13.20;;;;;;;-0.88;100.00;100972.53;1656150;86;21439;-72
2022/10/17 02:13:14;;;;;;;17.07;11.90;;;;;;;-0.93;100.00;100974.95;1656314;86;21159;-72
2022/10/17 02:16:04;;;;;;;25.12;13.10;;;;;;;-0.94;100.00;100978.73;1656241;86;21039;-72
2022/10/17 02:18:43;;;;;;;16.85;12.03;;;;;;;-1.00;100.00;100980.72;1657398;86;20991;-72
2022/10/17 02:21:34;;;;;;;19.10;12.43;;;;;;;-1.04;100.00;100985.28;1658562;86;21468;-72
2022/10/17 02:24:42;;;;;;;13.95;10.80;;;;;;;-1.09;100.00;100987.69;1656058;86;21022;-72
2022/10/17 02:27:36;;;;;;;16.30;11.03;;;;;;;-1.11;100.00;100985.91;1655981;86;21185;-72
2022/10/17 02:30:17;;;;;;;16.10;10.75;;;;;;;-1.11;100.00;100980.80;1656107;86;20987;-72
2022/10/17 02:32:57;;;;;;;22.10;11.30;;;;;;;-1.13;100.00;100984.99;1606861;86;20967;-73
2022/10/17 02:35:27;;;;;;;18.62;12.07;;;;;;;-1.13;100.00;100983.72;1654148;86;20986;-72
2022/10/17 02:37:54;;;;;;;15.65;11.18;;;;;;;-1.14;100.00;100981.98;1656035;86;21023;-73
2022/10/17 02:40:23;;;;;;;17.23;12.13;;;;;;;-1.13;100.00;100987.14;1656128;86;21075;-73
2022/10/17 02:42:51;;;;;;;19.77;12.30;;;;;;;-1.13;100.00;100992.24;1655964;86;21538;-73
2022/10/17 02:45:17;;;;;;;16.37;11.73;;;;;;;-1.13;100.00;100978.61;1661083;86;21065;-73
2022/10/17 02:48:05;;;;;;;20.17;11.28;;;;;;;-1.13;100.00;100979.48;1661140;86;21021;-73
2022/10/17 02:51:23;;;;;;;15.85;10.58;;;;;;;-1.12;100.00;100973.95;1638437;86;20979;-73
2022/10/17 02:54:20;;;;;;;15.75;10.65;;;;;;;-1.13;100.00;100978.61;1656092;86;21709;-73
2022/10/17 02:57:03;;;;;;;13.32;10.00;;;;;;;-1.17;100.00;100966.16;1660937;86;21098;-73
2022/10/17 02:59:30;;;;;;;19.17;11.28;;;;;;;-1.19;100.00;100965.24;1637911;86;21074;-73
2022/10/17 03:01:56;;;;;;;15.70;10.10;;;;;;;-1.22;100.00;100963.03;1656988;86;21457;-73
2022/10/17 03:04:24;;;;;;;13.32;9.98;;;;;;;-1.25;100.00;100959.98;1658712;86;21027;-73
2022/10/17 03:06:50;;;;;;;18.00;10.95;;;;;;;-1.25;100.00;100956.56;1628490;88;21118;-73
2022/10/17 03:09:18;;;;;;;12.85;10.20;;;;;;;-1.27;100.00;100953.09;1632953;87;21025;-73
2022/10/17 03:11:45;;;;;;;17.90;11.15;;;;;;;-1.27;100.00;100958.20;1633437;88;21422;-73
2022/10/17 03:14:14;;;;;;;16.00;10.03;;;;;;;-1.28;100.00;100957.33;1633412;87;20974;-73
2022/10/17 03:16:41;;;;;;;16.20;11.05;;;;;;;-1.30;100.00;100947.89;1633353;88;21522;-73
2022/10/17 03:19:07;;;;;;;15.00;10.72;;;;;;;-1.29;100.00;100952.17;1633219;88;21274;-73
2022/10/17 03:21:39;;;;;;;14.65;9.85;;;;;;;-1.31;100.00;100943.20;1633127;88;21035;-73
2022/10/17 03:24:06;;;;;;;16.05;11.10;;;;;;;-1.31;100.00;100948.70;1633017;87;21110;-73
2022/10/17 03:26:33;;;;;;;15.20;10.00;;;;;;;-1.32;100.00;100945.29;1642862;87;20992;-73
2022/10/17 03:29:00;;;;;;;15.78;10.18;;;;;;;-1.34;100.00;100945.65;1642768;87;21094;-73
2022/10/17 03:31:27;;;;;;;14.65;9.88;;;;;;;-1.40;100.00;100951.42;1660332;86;21251;-73
2022/10/17 03:33:55;;;;;;;13.80;10.50;;;;;;;-1.46;100.00;100960.61;1656022;86;21419;-73
2022/10/17 03:36:21;;;;;;;17.40;11.00;;;;;;;-1.51;100.00;100953.21;1656017;86;20991;-73
2022/10/17 03:38:53;;;;;;;13.53;10.28;;;;;;;-1.54;100.00;100952.70;1655985;86;21027;-73
2022/10/17 03:41:20;;;;;;;13.48;9.73;;;;;;;-1.55;100.00;100951.38;1656041;86;21030;-73
2022/10/17 03:43:47;;;;;;;15.35;9.48;;;;;;;-1.56;100.00;100950.92;1656057;86;21258;-73
2022/10/17 03:46:14;;;;;;;13.85;9.08;;;;;;;-1.56;100.00;100956.89;1627792;87;21003;-73
2022/10/17 03:48:42;;;;;;;15.85;9.78;;;;;;;-1.53;100.00;100951.89;1633147;87;21014;-73
2022/10/17 03:51:10;;;;;;;15.65;9.70;;;;;;;-1.50;100.00;100952.39;1633242;88;21034;-73
2022/10/17 03:53:41;;;;;;;11.93;9.18;;;;;;;-1.48;100.00;100947.80;1633077;87;21014;-73
2022/10/17 03:56:13;;;;;;;12.03;8.70;;;;;;;-1.47;100.00;100949.53;1633129;88;21233;-73
2022/10/17 03:58:42;;;;;;;22.42;10.78;;;;;;;-1.45;100.00;100944.48;1633074;87;20977;-73
2022/10/17 04:01:11;;;;;;;18.02;9.85;;;;;;;-1.43;100.00;100937.33;1633135;88;21017;-73
2022/10/17 04:03:39;;;;;;;12.73;10.18;;;;;;;-1.42;100.00;100935.23;1633270;88;21560;-73
2022/10/17 04:06:06;;;;;;;16.93;10.90;;;;;;;-1.40;100.00;100934.00;1633246;88;21434;-73
2022/10/17 04:08:34;;;;;;;16.05;9.70;;;;;;;-1.36;100.00;100937.48;1633084;87;21159;-73
2022/10/17 04:11:10;;;;;;;13.30;9.68;;;;;;;-1.34;100.00;100931.61;1632527;87;21046;-73
2022/10/17 04:13:38;;;;;;;17.20;9.75;;;;;;;-1.32;100.00;100936.36;1633158;88;21179;-73
2022/10/17 04:16:11;;;;;;;14.15;9.53;;;;;;;-1.32;100.00;100950.80;1633114;88;21101;-73
2022/10/17 04:18:42;;;;;;;16.00;9.90;;;;;;;-1.36;100.00;100951.52;1633266;88;21021;-73
2022/10/17 04:21:10;;;;;;;20.82;12.18;;;;;;;-1.42;100.00;100958.20;1633127;88;21924;-73
2022/10/17 04:23:38;;;;;;;22.27;11.70;;;;;;;-1.46;100.00;100962.75;1633142;88;21556;-73
2022/10/17 04:26:07;;;;;;;16.52;11.63;;;;;;;-1.48;100.00;100970.77;1632288;87;21045;-73
2022/10/17 04:28:34;;;;;;;16.12;11.05;;;;;;;-1.46;100.00;100975.92;1633110;88;20974;-73
2022/10/17 04:31:10;;;;;;;16.10;10.28;;;;;;;-1.45;100.00;100977.66;1633251;88;21043;-73
2022/10/17 04:33:39;;;;;;;16.48;10.53;;;;;;;-1.43;100.00;100981.12;1607705;87;21181;-73
2022/10/17 04:36:12;;;;;;;12.78;9.80;;;;;;;-1.40;100.00;100973.13;1633111;88;21431;-73
2022/10/17 04:38:39;;;;;;;20.85;10.55;;;;;;;-1.32;100.00;100977.60;1633172;88;21070;-73
2022/10/17 04:41:12;;;;;;;19.48;10.70;;;;;;;-1.26;100.00;100985.05;1633148;87;21033;-73
2022/10/17 04:43:39;;;;;;;16.73;10.63;;;;;;;-1.20;100.00;100986.48;1633181;88;21017;-73
2022/10/17 04:46:10;;;;;;;15.65;10.18;;;;;;;-1.21;100.00;100991.58;1633229;88;21160;-73
2022/10/17 04:48:39;;;;;;;22.65;13.10;;;;;;;-1.23;100.00;100986.83;1624364;87;21071;-73
2022/10/17 04:51:11;;;;;;;19.25;10.55;;;;;;;-1.21;100.00;100997.95;1640746;87;20986;-73
2022/10/17 04:53:41;;;;;;;14.38;10.45;;;;;;;-1.15;100.00;100996.84;1632317;87;21037;-73
2022/10/17 04:56:12;;;;;;;14.85;9.63;;;;;;;-1.08;100.00;100991.11;1633110;88;21077;-73
2022/10/17 04:58:40;;;;;;;22.90;11.78;;;;;;;-1.00;100.00;100990.94;1632970;87;21896;-73
2022/10/17 05:01:09;;;;;;;19.35;11.20;;;;;;;-0.90;100.00;100994.61;1633057;88;21045;-74
2022/10/17 05:03:37;;;;;;;17.40;10.85;;;;;;;-0.83;100.00;101008.02;1629651;87;21048;-73
2022/10/17 05:06:13;;;;;;;12.90;8.45;;;;;;;-0.75;100.00;101011.64;1622979;88;21089;-74
2022/10/17 05:08:41;;;;;;;25.43;13.65;;;;;;;-0.64;100.00;101019.63;1650192;86;21094;-72
2022/10/17 05:11:22;;;;;;;27.15;15.05;;;;;;;-0.52;100.00;101026.35;1639092;87;21273;-72
2022/10/17 05:13:56;;;;;;;23.50;16.67;;;;;;;-0.43;100.00;101026.63;1608985;89;21070;-72
2022/10/17 05:16:24;;;;;;;37.48;17.42;;;;;;;-0.37;100.00;101022.94;1607168;89;21031;-72
2022/10/17 05:18:55;;;;;;;25.57;14.58;;;;;;;-0.29;100.00;101024.44;1604910;89;20975;-72
2022/10/17 05:21:25;;;;;;;19.50;12.58;;;;;;;-0.21;100.00;101037.89;1605060;88;21478;-72
2022/10/17 05:23:53;;;;;;;17.40;12.43;;;;;;;-0.13;100.00;101037.66;1638027;86;21142;-73
2022/10/17 05:26:22;;;;;;;18.07;12.00;;;;;;;-0.06;100.00;101037.02;1635445;86;21104;-75
2022/10/17 05:28:51;;;;;;;19.07;14.43;;;;;;;-0.01;100.00;101047.37;1696660;84;21042;-72
2022/10/17 05:31:20;;;;;;;19.50;12.75;;;;;;;0.04;100.00;101045.78;1675533;85;21068;-74
2022/10/17 05:33:50;;;;;;;24.80;15.45;;;;;;;0.09;100.00;101053.16;1657710;85;21061;-74
2022/10/17 05:36:18;;;;;;;22.62;12.80;;;;;;;0.15;100.00;101046.94;1652334;86;21910;-73
2022/10/17 05:38:50;;;;;;;22.42;13.90;;;;;;;0.23;100.00;101045.83;1670380;85;21419;-74
2022/10/17 05:41:18;;;;;;;26.95;16.20;;;;;;;0.29;100.00;101046.86;1656422;84;21082;-73
2022/10/17 05:43:46;;;;;;;22.80;13.72;;;;;;;0.39;100.00;101057.34;1680071;85;21035;-73
2022/10/17 05:46:18;;;;;;;22.58;13.65;;;;;;;0.47;100.00;101063.50;1679760;83;21066;-68
2022/10/17 05:48:48;;;;;;;22.48;13.22;;;;;;;0.53;100.00;101064.94;1681192;85;21818;-69
2022/10/17 05:51:21;;;;;;;26.35;12.47;;;;;;;0.62;100.00;101064.73;1686519;83;21479;-69
2022/10/17 05:53:53;;;;;;;20.80;11.90;;;;;;;0.74;100.00;101069.71;1670536;83;21052;-71
2022/10/17 05:56:25;;;;;;;20.08;11.93;;;;;;;0.86;100.00;101074.70;1630812;86;21740;-68
2022/10/17 05:58:53;;;;;;;16.57;11.63;;;;;;;0.98;100.00;101080.13;1637725;86;21035;-68
2022/10/17 06:01:30;;;;;;;13.43;10.85;;;;;;;1.10;100.00;101082.08;1620949;86;21261;-70
2022/10/17 06:04:02;;;;;;;18.27;12.18;;;;;;;1.21;100.00;101085.73;1610003;88;21065;-70
2022/10/17 06:06:40;;;;;;;21.15;11.00;;;;;;;1.30;100.00;101083.39;1633784;86;21093;-70
2022/10/17 06:09:16;;;;;;;21.70;11.28;;;;;;;1.38;100.00;101083.15;1634215;86;21041;-69
2022/10/17 06:11:46;;;;;;;25.90;13.22;;;;;;;1.50;100.00;101085.51;1658442;85;20990;-70
2022/10/17 06:14:18;;;;;;;20.27;12.75;;;;;;;1.60;100.00;101087.45;1631790;86;21666;-69
2022/10/17 06:16:49;;;;;;;30.45;12.25;;;;;;;1.71;100.00;101076.55;1652919;85;24584;-70
2022/10/17 06:19:22;;;;;;;25.52;15.13;;;;;;;1.85;100.00;101075.53;1665117;85;20984;-68
2022/10/17 06:21:54;;;;;;;23.02;14.65;;;;;;;1.98;100.00;101068.54;1626332;88;21089;-69
2022/10/17 06:24:24;;;;;;;25.15;14.80;;;;;;;2.14;100.00;101071.37;1655165;86;21523;-70
2022/10/17 06:26:53;;;;;;;27.65;15.65;;;;;;;2.26;100.00;101062.59;1647077;87;21208;-68
2022/10/17 06:29:25;;;;;;;27.32;15.80;;;;;;;2.37;100.00;101063.67;1655011;86;21015;-68
2022/10/17 06:31:57;;;;;;;30.35;17.15;;;;;;;2.49;100.00;101063.00;1626511;88;21049;-68
2022/10/17 06:34:32;;;;;;;33.38;17.12;;;;;;;2.61;100.00;101065.75;1634489;86;20994;-69
2022/10/17 06:37:02;;;;;;;31.62;17.12;;;;;;;2.74;100.00;101068.98;1660581;86;21585;-68
2022/10/17 06:39:36;;;;;;;29.48;15.85;;;;;;;2.86;100.00;101069.16;1668680;85;21734;-69
2022/10/17 06:42:12;;;;;;;29.25;15.78;;;;;;;2.99;100.00;101067.66;1642468;86;21482;-68
2022/10/17 06:45:00;;;;;;;27.17;15.80;;;;;;;3.16;100.00;101068.75;1643709;86;21063;-68
2022/10/17 06:47:40;;;;;;;24.55;14.03;;;;;;;3.33;100.00;101067.28;1628346;88;21075;-68
2022/10/17 06:50:10;;;;;;;22.07;12.40;;;;;;;3.52;100.00;101070.08;1628579;88;21034;-74
2022/10/17 06:52:44;;;;;;;19.90;9.98;;;;;;;3.69;100.00;101076.30;1630335;88;21835;-69
2022/10/17 06:55:17;;;;;;;16.75;9.60;;;;;;;3.87;100.00;101080.79;1599686;88;21456;-70
2022/10/17 06:57:45;;;;;;;13.88;8.88;;;;;;;4.03;100.00;101071.95;1628049;87;21054;-71
2022/10/17 07:00:14;;;;;;;11.88;7.55;;;;;;;4.19;100.00;101058.84;1636484;86;20967;-70
2022/10/17 07:02:43;;;;;;;18.00;8.48;;;;;;;4.36;100.00;101055.99;1635341;86;20971;-70
2022/10/17 07:05:18;;;;;;;16.40;8.70;;;;;;;4.52;100.00;101060.84;1608069;88;21478;-70
2022/10/17 07:07:47;;;;;;;15.30;8.70;;;;;;;4.69;100.00;101068.28;1635442;86;21062;-70
2022/10/17 07:10:14;;;;;;;17.62;9.53;;;;;;;4.86;100.00;101076.14;1622750;87;21012;-70
2022/10/17 07:12:43;;;;;;;16.05;8.80;;;;;;;5.02;100.00;101072.81;1690281;83;21037;-70
2022/10/17 07:15:11;;;;;;;13.43;8.45;;;;;;;5.15;100.00;101070.77;1690221;84;21030;-70
2022/10/17 07:17:38;;;;;;;17.70;8.35;;;;;;;5.32;100.00;101079.02;1690445;84;21249;-69
2022/10/17 07:20:08;;;;;;;21.80;9.35;;;;;;;5.45;99.75;101075.64;1690310;85;21081;-70
2022/10/17 07:22:36;;;;;;;14.28;8.68;;;;;;;5.61;99.28;101072.70;1690412;85;20975;-69
2022/10/17 07:25:05;;;;;;;24.05;8.48;;;;;;;5.76;98.70;101073.64;1690116;84;20990;-71
2022/10/17 07:27:36;;;;;;;12.18;8.13;;;;;;;5.91;98.27;101073.28;1669293;84;20988;-69
2022/10/17 07:30:12;;;;;;;14.93;9.08;;;;;;;6.06;97.51;101080.64;1649999;86;21085;-70
2022/10/17 07:32:47;;;;;;;18.25;9.35;;;;;;;6.21;97.11;101076.79;1680377;84;21082;-70
2022/10/17 07:35:21;;;;;;;11.68;8.63;;;;;;;6.38;96.54;101073.39;1694377;84;21022;-70
2022/10/17 07:37:49;;;;;;;17.02;8.20;;;;;;;6.55;96.20;101069.09;1694771;84;21018;-70
2022/10/17 07:40:18;;;;;;;13.58;8.53;;;;;;;6.71;95.74;101064.78;1686488;84;21126;-70
2022/10/17 07:42:51;;;;;;;11.85;8.25;;;;;;;6.86;95.21;101058.30;1665804;86;21103;-70
2022/10/17 07:45:23;;;;;;;16.87;8.73;;;;;;;7.03;94.84;101050.51;1664537;86;21105;-70
2022/10/17 07:48:02;;;;;;;16.52;8.00;;;;;;;7.21;94.31;101045.29;1664647;86;21029;-70
2022/10/17 07:50:34;;;;;;;11.17;6.83;;;;;;;7.40;93.61;101043.07;1694351;84;21045;-70
2022/10/17 07:53:20;;;;;;;17.80;7.60;;;;;;;7.59;92.70;101039.55;1749740;80;21667;-70
2022/10/17 07:55:48;;;;;;;13.75;6.90;;;;;;;7.79;91.38;101038.62;1768509;79;21144;-70
2022/10/17 07:58:15;;;;;;;19.65;7.33;;;;;;;7.95;89.83;101042.41;1761345;81;21035;-70
2022/10/17 08:00:42;;;;;;;12.75;6.03;;;;;;;8.13;88.72;101039.27;1761720;81;21032;-70
2022/10/17 08:03:15;;;;;;;10.95;4.83;;;;;;;8.29;86.94;101050.82;1689874;83;21017;-69
2022/10/17 08:05:44;;;;;;;13.93;6.20;;;;;;;8.49;84.94;101057.63;1730989;82;21059;-69
2022/10/17 08:08:14;;;;;;;11.38;5.20;;;;;;;8.71;82.76;101057.02;1758744;80;22735;-70
2022/10/17 08:10:43;;;;;;;12.98;5.42;;;;;;;8.86;80.87;101052.54;1768656;79;20939;-71
2022/10/17 08:13:23;;;;;;;10.40;5.17;;;;;;;9.04;79.59;101053.23;1764550;80;21870;-69
2022/10/17 08:16:02;;;;;;;11.43;4.75;;;;;;;9.20;78.12;101062.58;1714311;83;21025;-69
2022/10/17 08:18:31;;;;;;;14.95;5.30;;;;;;;9.38;76.36;101068.05;1790837;80;21038;-70
2022/10/17 08:21:02;;;;;;;7.90;4.85;;;;;;;9.55;74.72;101055.72;1804503;78;21100;-72
2022/10/17 08:23:30;;;;;;;9.23;4.85;;;;;;;9.68;73.08;101049.48;1788674;80;21063;-71
2022/10/17 08:25:59;;;;;;;12.65;5.00;;;;;;;9.82;71.99;101052.75;1780548;78;21067;-71
2022/10/17 08:28:27;;;;;;;9.33;4.87;;;;;;;9.95;71.38;101042.62;1797548;78;21090;-71
2022/10/17 08:31:06;;;;;;;5.97;3.35;;;;;;;10.07;69.50;101038.98;1800395;78;21058;-70
2022/10/17 08:33:38;;;;;;;9.48;3.95;;;;;;;10.19;68.10;101046.63;1809611;78;21254;-70
2022/10/17 08:36:13;;;;;;;4.47;3.37;;;;;;;10.29;66.85;101045.62;1764552;80;21099;-70
2022/10/17 08:38:44;;;;;;;22.93;5.87;;;;;;;10.40;65.46;101048.48;1764755;81;20968;-70
2022/10/17 08:41:23;;;;;;;9.05;4.45;;;;;;;10.50;65.44;101043.13;1761433;81;20849;-70
2022/10/17 08:44:26;;;;;;;10.43;4.55;;;;;;;10.61;64.89;101031.23;1764871;80;20996;-69
2022/10/17 08:46:58;;;;;;;9.23;3.97;;;;;;;10.70;63.55;101028.04;1765173;81;21271;-71
2022/10/17 08:49:56;;;;;;;7.55;3.60;;;;;;;10.84;62.05;101029.53;1764883;80;21000;-69
2022/10/17 08:52:49;;;;;;;7.72;3.95;;;;;;;10.91;61.00;101028.55;1764712;80;20998;-70
2022/10/17 08:55:27;;;;;;;14.38;3.83;;;;;;;11.00;60.81;101034.88;1765081;81;21103;-69
2022/10/17 08:57:56;;;;;;;5.05;3.62;;;;;;;11.09;60.84;101039.06;1762633;81;20984;-70
2022/10/17 09:00:25;;;;;;;8.93;4.35;;;;;;;11.17;59.84;101047.17;1783444;80;21153;-70
2022/10/17 09:03:17;;;;;;;6.78;3.40;;;;;;;11.23;59.18;101048.77;1785530;80;20941;-69
2022/10/17 09:05:57;;;;;;;4.93;4.00;;;;;;;11.31;58.38;101061.22;1792164;80;21075;-69
2022/10/17 09:08:40;;;;;;;8.03;3.75;;;;;;;11.36;58.16;101060.25;1718254;83;21461;-68
2022/10/17 09:11:20;;;;;;;7.47;3.35;;;;;;;11.42;57.91;101060.55;1718571;83;21052;-70
2022/10/17 09:14:08;;;;;;;7.58;3.40;;;;;;;11.51;58.16;101056.92;1693311;82;21077;-70
2022/10/17 09:16:50;;;;;;;7.17;4.05;;;;;;;11.57;58.15;101059.41;1723393;82;21028;-70
2022/10/17 09:19:27;;;;;;;5.30;3.72;;;;;;;11.65;57.87;101060.09;1702999;82;21055;-69
2022/10/17 09:22:14;;;;;;;6.50;3.98;;;;;;;11.73;57.09;101062.97;1706095;83;20976;-69
2022/10/17 09:24:54;;;;;;;6.08;3.52;;;;;;;11.79;56.05;101064.59;1716075;83;21051;-69
2022/10/17 09:27:40;;;;;;;7.08;4.15;;;;;;;11.85;55.88;101067.53;1717540;82;21883;-69
2022/10/17 09:30:16;;;;;;;6.83;3.75;;;;;;;11.89;56.13;101059.63;1717840;82;21022;-70
2022/10/17 09:32:46;;;;;;;11.20;5.15;;;;;;;11.95;56.21;101050.81;1717674;82;32755;-70
2022/10/17 09:35:13;;;;;;;8.40;4.37;;;;;;;12.00;56.06;101052.41;1782741;80;21039;-68
2022/10/17 09:37:40;;;;;;;10.98;4.30;;;;;;;12.06;55.99;101050.98;1781251;80;21035;-69
2022/10/17 09:40:14;;;;;;;5.45;4.22;;;;;;;12.12;55.60;101039.55;1782226;80;21147;-69
2022/10/17 09:42:43;;;;;;;9.13;4.00;;;;;;;12.17;55.35;101031.19;1783266;80;20896;-69
2022/10/17 09:45:23;;;;;;;6.30;4.33;;;;;;;12.23;55.49;101022.34;1793616;79;20969;-69
2022/10/17 09:48:09;;;;;;;9.50;4.08;;;;;;;12.28;55.26;101025.25;1796007;79;21041;-69
2022/10/17 09:50:35;;;;;;;6.75;4.45;;;;;;;12.34;54.78;101018.59;1792591;79;20929;-68
2022/10/17 09:53:17;;;;;;;16.10;4.80;;;;;;;12.39;54.70;101011.94;1805995;79;21149;-68
2022/10/17 09:55:50;;;;;;;6.70;4.65;;;;;;;12.43;54.85;101018.80;1807226;79;20980;-69
2022/10/17 09:58:17;;;;;;;7.97;4.58;;;;;;;12.49;53.67;101016.05;1810939;79;21027;-69
2022/10/17 10:00:46;;;;;;;6.55;4.65;;;;;;;12.51;53.95;101015.57;1778685;79;21067;-69
2022/10/17 10:03:24;;;;;;;17.70;5.60;;;;;;;12.54;53.13;101014.20;1795820;79;20934;-68
2022/10/17 10:06:18;;;;;;;11.80;4.30;;;;;;;12.58;53.69;101010.63;1778860;80;21114;-69
2022/10/17 10:08:59;;;;;;;6.72;4.05;;;;;;;12.63;53.56;101010.48;1779095;80;21419;-70
2022/10/17 10:11:51;;;;;;;7.97;4.03;;;;;;;12.69;52.87;101015.11;1790377;79;21066;-70
2022/10/17 10:14:28;;;;;;;7.17;4.35;;;;;;;12.75;52.78;101018.88;1811125;79;20968;-70
2022/10/17 10:16:56;;;;;;;10.93;4.83;;;;;;;12.82;52.53;101010.86;1810950;79;20929;-69
2022/10/17 10:19:37;;;;;;;4.83;4.10;;;;;;;12.87;52.76;101012.47;1811016;79;22107;-70
2022/10/17 10:22:14;;;;;;;6.50;4.47;;;;;;;12.92;51.86;101013.20;1810998;78;20944;-69
2022/10/17 10:24:44;;;;;;;9.05;4.30;;;;;;;12.96;52.25;101017.91;1809789;79;21053;-70
2022/10/17 10:27:15;;;;;;;9.00;4.45;;;;;;;13.01;52.05;101016.00;1807937;79;21226;-69
2022/10/17 10:29:50;;;;;;;14.90;5.42;;;;;;;13.06;51.89;101016.75;1809051;79;21086;-70
2022/10/17 10:32:26;;;;;;;6.05;4.33;;;;;;;13.09;51.49;101008.38;1804923;77;21539;-69
2022/10/17 10:34:59;;;;;;;;;;;;;;;13.14;51.56;101010.02;1805896;79;20892;-69
2022/10/17 10:37:42;;;;;;;7.12;4.85;;;;;;;13.19;52.05;101002.95;1808980;79;20170;-69
2022/10/17 10:40:42;;;;;;;15.70;5.97;;;;;;;13.24;52.12;100999.73;1808604;79;21440;-69
2022/10/17 10:43:24;;;;;;;7.05;4.78;;;;;;;13.30;52.26;100998.27;1822717;77;20985;-71
2022/10/17 10:45:51;;;;;;;11.33;4.75;;;;;;;13.36;50.98;100988.95;1782613;79;21252;-70
2022/10/17 10:48:34;;;;;;;11.57;5.37;;;;;;;13.39;50.71;100991.45;1799140;79;20998;-69
2022/10/17 10:51:09;;;;;;;10.38;5.87;;;;;;;13.42;50.71;100993.53;1800505;79;21086;-70
2022/10/17 10:53:57;;;;;;;5.33;4.45;;;;;;;13.47;49.98;100986.02;1785330;79;20968;-70
2022/10/17 10:56:39;;;;;;;11.35;7.50;;;;;;;13.50;49.91;100985.94;1777668;79;21038;-69
2022/10/17 10:59:25;;;;;;;9.80;5.83;;;;;;;13.53;50.52;100980.62;1776837;80;21137;-70
2022/10/17 11:02:22;;;;;;;8.78;5.70;;;;;;;13.57;50.75;100987.02;1683029;80;21577;-68
2022/10/17 11:05:10;;;;;;;19.10;8.68;;;;;;;13.61;50.79;100986.00;1777085;80;21093;-70
2022/10/17 11:07:51;;;;;;;11.08;6.45;;;;;;;13.67;51.17;100983.67;1777033;80;21031;-70
2022/10/17 11:10:49;;;;;;;13.13;6.50;;;;;;;13.73;50.95;100975.65;1778154;77;21035;-69
2022/10/17 11:13:23;;;;;;;11.90;5.65;;;;;;;13.78;50.74;100969.83;1796231;79;21130;-69
2022/10/17 11:16:19;;;;;;;12.18;5.55;;;;;;;13.82;50.58;100966.64;1809664;77;20991;-69
2022/10/17 11:19:32;;;;;;;7.90;5.03;;;;;;;13.83;50.33;100967.05;1741807;79;21097;-70
2022/10/17 11:22:20;;;;;;;8.13;4.72;;;;;;;13.87;50.49;100966.06;1774296;80;21031;-70
2022/10/17 11:25:05;;;;;;;6.03;4.80;;;;;;;13.92;50.27;100970.25;1776251;80;21042;-70
2022/10/17 11:27:33;;;;;;;12.15;4.70;;;;;;;13.96;49.49;100977.11;1774590;80;21140;-70
2022/10/17 11:30:00;;;;;;;11.73;4.75;;;;;;;14.01;49.33;100971.70;1776307;80;22118;-71
2022/10/17 11:32:53;;;;;;;9.30;4.78;;;;;;;14.05;49.13;100978.56;1757611;79;21027;-71
2022/10/17 11:35:33;;;;;;;8.78;5.65;;;;;;;14.08;48.66;100971.47;1788122;79;21062;-70
2022/10/17 11:38:22;;;;;;;8.73;4.37;;;;;;;14.14;48.27;100979.59;1801743;79;21031;-71
2022/10/17 11:40:52;;;;;;;10.40;5.78;;;;;;;14.17;47.85;100974.71;1777116;77;21089;-71
2022/10/17 11:43:37;;;;;;;10.90;4.65;;;;;;;14.17;48.25;100972.95;1829931;77;21072;-73
2022/10/17 11:46:22;;;;;;;6.62;4.35;;;;;;;14.20;48.36;100976.75;1839811;77;21497;-72